sensor_id;sensor_type;location;lat;lon;timestamp;temperature;humidity
57108;DHT22;42987;52.916;6.542;2023-12-07T00:02:15;1.90;99.90
57108;DHT22;42987;52.916;6.542;2023-12-07T00:04:40;1.90;99.90
57108;DHT22;42987;52.916;6.542;2023-12-07T00:07:06;2.00;99.90
57108;DHT22;42987;52.916;6.542;2023-12-07T00:09:32;2.00;99.90
57108;DHT22;42987;52.916;6.542;2023-12-07T00:11:57;2.00;99.90
57108;DHT22;42987;52.916;6.542;2023-12-07T00:14:23;1.90;99.90
57108;DHT22;42987;52.916;6.542;2023-12-07T00:16:49;2.00;99.90
57108;DHT22;42987;52.916;6.542;2023-12-07T00:19:15;2.00;99.90
57108;DHT22;42987;52.916;6.542;2023-12-07T00:21:40;2.00;99.90
57108;DHT22;42987;52.916;6.542;2023-12-07T00:24:06;2.00;99.90
57108;DHT22;42987;52.916;6.542;2023-12-07T00:26:32;2.00;99.90
57108;DHT22;42987;52.916;6.542;2023-12-07T00:28:58;2.00;99.90
57108;DHT22;42987;52.916;6.542;2023-12-07T00:31:23;2.00;99.90
57108;DHT22;42987;52.916;6.542;2023-12-07T00:33:49;2.10;99.90
57108;DHT22;42987;52.916;6.542;2023-12-07T00:36:15;2.00;99.90
57108;DHT22;42987;52.916;6.542;2023-12-07T00:38:40;2.10;99.90
57108;DHT22;42987;52.916;6.542;2023-12-07T00:41:09;2.10;99.90
57108;DHT22;42987;52.916;6.542;2023-12-07T00:43:35;2.10;99.90
57108;DHT22;42987;52.916;6.542;2023-12-07T00:46:01;2.10;99.90
57108;DHT22;42987;52.916;6.542;2023-12-07T00:48:27;2.10;99.90
57108;DHT22;42987;52.916;6.542;2023-12-07T00:50:53;2.10;99.90
57108;DHT22;42987;52.916;6.542;2023-12-07T00:53:19;2.20;99.90
57108;DHT22;42987;52.916;6.542;2023-12-07T00:55:45;2.10;99.90
57108;DHT22;42987;52.916;6.542;2023-12-07T00:58:10;2.20;99.90
57108;DHT22;42987;52.916;6.542;2023-12-07T01:00:36;2.20;99.90
57108;DHT22;42987;52.916;6.542;2023-12-07T01:03:02;2.10;99.90
57108;DHT22;42987;52.916;6.542;2023-12-07T01:05:28;2.10;99.90
57108;DHT22;42987;52.916;6.542;2023-12-07T01:07:54;2.10;99.90
57108;DHT22;42987;52.916;6.542;2023-12-07T01:10:19;2.10;99.90
57108;DHT22;42987;52.916;6.542;2023-12-07T01:12:45;2.10;99.90
57108;DHT22;42987;52.916;6.542;2023-12-07T01:15:11;2.10;99.90
57108;DHT22;42987;52.916;6.542;2023-12-07T01:17:37;2.20;99.90
57108;DHT22;42987;52.916;6.542;2023-12-07T01:20:04;2.20;99.90
57108;DHT22;42987;52.916;6.542;2023-12-07T01:22:32;2.20;99.90
57108;DHT22;42987;52.916;6.542;2023-12-07T01:24:58;2.20;99.90
57108;DHT22;42987;52.916;6.542;2023-12-07T01:27:24;2.20;99.90
57108;DHT22;42987;52.916;6.542;2023-12-07T01:29:49;2.20;99.90
57108;DHT22;42987;52.916;6.542;2023-12-07T01:32:15;2.20;99.90
57108;DHT22;42987;52.916;6.542;2023-12-07T01:34:41;2.20;99.90
57108;DHT22;42987;52.916;6.542;2023-12-07T01:37:07;2.20;99.90
57108;DHT22;42987;52.916;6.542;2023-12-07T01:39:33;2.10;99.90
57108;DHT22;42987;52.916;6.542;2023-12-07T01:41:59;2.20;99.90
57108;DHT22;42987;52.916;6.542;2023-12-07T01:44:24;2.20;99.90
57108;DHT22;42987;52.916;6.542;2023-12-07T01:46:54;2.10;99.90
57108;DHT22;42987;52.916;6.542;2023-12-07T01:49:20;2.10;99.90
57108;DHT22;42987;52.916;6.542;2023-12-07T01:51:46;2.10;99.90
57108;DHT22;42987;52.916;6.542;2023-12-07T01:54:12;2.10;99.90
57108;DHT22;42987;52.916;6.542;2023-12-07T01:56:38;2.10;99.90
57108;DHT22;42987;52.916;6.542;2023-12-07T01:59:04;2.10;99.90
57108;DHT22;42987;52.916;6.542;2023-12-07T02:01:29;2.10;99.90
57108;DHT22;42987;52.916;6.542;2023-12-07T02:03:55;2.10;99.90
57108;DHT22;42987;52.916;6.542;2023-12-07T02:06:21;2.10;99.90
57108;DHT22;42987;52.916;6.542;2023-12-07T02:08:47;2.00;99.90
57108;DHT22;42987;52.916;6.542;2023-12-07T02:11:13;2.00;99.90
57108;DHT22;42987;52.916;6.542;2023-12-07T02:13:40;2.00;99.90
57108;DHT22;42987;52.916;6.542;2023-12-07T02:16:17;2.00;99.90
57108;DHT22;42987;52.916;6.542;2023-12-07T02:18:52;2.00;99.90
57108;DHT22;42987;52.916;6.542;2023-12-07T02:21:34;1.90;99.90
57108;DHT22;42987;52.916;6.542;2023-12-07T02:24:03;1.90;99.90
57108;DHT22;42987;52.916;6.542;2023-12-07T02:26:34;1.80;99.90
57108;DHT22;42987;52.916;6.542;2023-12-07T02:29:00;1.80;99.90
57108;DHT22;42987;52.916;6.542;2023-12-07T02:31:26;1.80;99.90
57108;DHT22;42987;52.916;6.542;2023-12-07T02:33:52;1.70;99.90
57108;DHT22;42987;52.916;6.542;2023-12-07T02:36:26;1.70;99.90
57108;DHT22;42987;52.916;6.542;2023-12-07T02:38:56;1.60;99.90
57108;DHT22;42987;52.916;6.542;2023-12-07T02:41:24;1.70;99.90
57108;DHT22;42987;52.916;6.542;2023-12-07T02:43:51;1.60;99.90
57108;DHT22;42987;52.916;6.542;2023-12-07T02:46:18;1.50;99.90
57108;DHT22;42987;52.916;6.542;2023-12-07T02:48:43;1.50;99.90
57108;DHT22;42987;52.916;6.542;2023-12-07T02:51:09;1.50;99.90
57108;DHT22;42987;52.916;6.542;2023-12-07T02:53:35;1.40;99.90
57108;DHT22;42987;52.916;6.542;2023-12-07T02:56:01;1.40;99.90
57108;DHT22;42987;52.916;6.542;2023-12-07T02:58:26;1.40;99.90
57108;DHT22;42987;52.916;6.542;2023-12-07T03:00:52;1.30;99.90
57108;DHT22;42987;52.916;6.542;2023-12-07T03:03:18;1.30;99.90
57108;DHT22;42987;52.916;6.542;2023-12-07T03:05:44;1.30;99.90
57108;DHT22;42987;52.916;6.542;2023-12-07T03:08:09;1.30;99.90
57108;DHT22;42987;52.916;6.542;2023-12-07T03:10:35;1.20;99.90
57108;DHT22;42987;52.916;6.542;2023-12-07T03:13:01;1.30;99.90
57108;DHT22;42987;52.916;6.542;2023-12-07T03:15:26;1.30;99.90
57108;DHT22;42987;52.916;6.542;2023-12-07T03:17:52;1.30;99.90
57108;DHT22;42987;52.916;6.542;2023-12-07T03:20:18;1.30;99.90
57108;DHT22;42987;52.916;6.542;2023-12-07T03:22:44;1.30;99.90
57108;DHT22;42987;52.916;6.542;2023-12-07T03:25:10;1.30;99.90
57108;DHT22;42987;52.916;6.542;2023-12-07T03:27:35;1.30;99.90
57108;DHT22;42987;52.916;6.542;2023-12-07T03:30:01;1.20;99.90
57108;DHT22;42987;52.916;6.542;2023-12-07T03:32:27;1.20;99.90
57108;DHT22;42987;52.916;6.542;2023-12-07T03:34:53;1.20;99.90
57108;DHT22;42987;52.916;6.542;2023-12-07T03:37:19;1.20;99.90
57108;DHT22;42987;52.916;6.542;2023-12-07T03:39:44;1.20;99.90
57108;DHT22;42987;52.916;6.542;2023-12-07T03:42:10;1.20;99.90
57108;DHT22;42987;52.916;6.542;2023-12-07T03:44:36;1.20;99.90
57108;DHT22;42987;52.916;6.542;2023-12-07T03:47:02;1.20;99.90
57108;DHT22;42987;52.916;6.542;2023-12-07T03:49:27;1.10;99.90
57108;DHT22;42987;52.916;6.542;2023-12-07T03:51:54;1.10;99.90
57108;DHT22;42987;52.916;6.542;2023-12-07T03:54:20;1.00;99.90
57108;DHT22;42987;52.916;6.542;2023-12-07T03:56:46;0.90;99.90
57108;DHT22;42987;52.916;6.542;2023-12-07T03:59:11;0.90;99.90
57108;DHT22;42987;52.916;6.542;2023-12-07T04:01:37;0.90;99.90
57108;DHT22;42987;52.916;6.542;2023-12-07T04:04:03;0.90;99.90
57108;DHT22;42987;52.916;6.542;2023-12-07T04:06:30;0.80;99.90
57108;DHT22;42987;52.916;6.542;2023-12-07T04:08:56;0.80;99.90
57108;DHT22;42987;52.916;6.542;2023-12-07T04:11:22;0.80;99.90
57108;DHT22;42987;52.916;6.542;2023-12-07T04:13:48;0.70;99.90
57108;DHT22;42987;52.916;6.542;2023-12-07T04:16:14;0.80;99.90
57108;DHT22;42987;52.916;6.542;2023-12-07T04:18:40;0.80;99.90
57108;DHT22;42987;52.916;6.542;2023-12-07T04:21:06;0.80;99.90
57108;DHT22;42987;52.916;6.542;2023-12-07T04:23:32;0.80;99.90
57108;DHT22;42987;52.916;6.542;2023-12-07T04:25:58;0.80;99.90
57108;DHT22;42987;52.916;6.542;2023-12-07T04:28:24;0.80;99.90
57108;DHT22;42987;52.916;6.542;2023-12-07T04:30:50;0.80;99.90
57108;DHT22;42987;52.916;6.542;2023-12-07T04:33:15;0.80;99.90
57108;DHT22;42987;52.916;6.542;2023-12-07T04:35:41;0.80;99.90
57108;DHT22;42987;52.916;6.542;2023-12-07T04:38:07;0.80;99.90
57108;DHT22;42987;52.916;6.542;2023-12-07T04:40:32;0.80;99.90
57108;DHT22;42987;52.916;6.542;2023-12-07T04:42:58;0.80;99.90
57108;DHT22;42987;52.916;6.542;2023-12-07T04:45:24;0.80;99.90
57108;DHT22;42987;52.916;6.542;2023-12-07T04:47:50;0.80;99.90
57108;DHT22;42987;52.916;6.542;2023-12-07T04:50:15;0.80;99.90
57108;DHT22;42987;52.916;6.542;2023-12-07T04:52:41;0.70;99.90
57108;DHT22;42987;52.916;6.542;2023-12-07T04:55:07;0.80;99.90
57108;DHT22;42987;52.916;6.542;2023-12-07T04:57:34;0.80;99.90
57108;DHT22;42987;52.916;6.542;2023-12-07T05:00:00;0.70;99.90
57108;DHT22;42987;52.916;6.542;2023-12-07T05:02:26;0.80;99.90
57108;DHT22;42987;52.916;6.542;2023-12-07T05:04:53;0.70;99.90
57108;DHT22;42987;52.916;6.542;2023-12-07T05:07:19;0.60;99.90
57108;DHT22;42987;52.916;6.542;2023-12-07T05:09:45;0.60;99.90
57108;DHT22;42987;52.916;6.542;2023-12-07T05:12:11;0.60;99.90
57108;DHT22;42987;52.916;6.542;2023-12-07T05:14:37;0.60;99.90
57108;DHT22;42987;52.916;6.542;2023-12-07T05:17:06;0.60;99.90
57108;DHT22;42987;52.916;6.542;2023-12-07T05:19:32;0.60;99.90
57108;DHT22;42987;52.916;6.542;2023-12-07T05:21:57;0.50;99.90
57108;DHT22;42987;52.916;6.542;2023-12-07T05:24:23;0.60;99.90
57108;DHT22;42987;52.916;6.542;2023-12-07T05:26:49;0.50;99.90
57108;DHT22;42987;52.916;6.542;2023-12-07T05:29:15;0.50;99.90
57108;DHT22;42987;52.916;6.542;2023-12-07T05:31:41;0.50;99.90
57108;DHT22;42987;52.916;6.542;2023-12-07T05:34:10;0.50;99.90
57108;DHT22;42987;52.916;6.542;2023-12-07T05:36:36;0.50;99.90
57108;DHT22;42987;52.916;6.542;2023-12-07T05:39:02;0.50;99.90
57108;DHT22;42987;52.916;6.542;2023-12-07T05:41:28;0.40;99.90
57108;DHT22;42987;52.916;6.542;2023-12-07T05:43:54;0.40;99.90
57108;DHT22;42987;52.916;6.542;2023-12-07T05:46:20;0.40;99.90
57108;DHT22;42987;52.916;6.542;2023-12-07T05:48:46;0.40;99.90
57108;DHT22;42987;52.916;6.542;2023-12-07T05:51:18;0.40;99.90
57108;DHT22;42987;52.916;6.542;2023-12-07T05:53:45;0.40;99.90
57108;DHT22;42987;52.916;6.542;2023-12-07T05:56:11;0.40;99.90
57108;DHT22;42987;52.916;6.542;2023-12-07T05:58:37;0.30;99.90
57108;DHT22;42987;52.916;6.542;2023-12-07T06:01:03;0.30;99.90
57108;DHT22;42987;52.916;6.542;2023-12-07T06:03:29;0.20;99.90
57108;DHT22;42987;52.916;6.542;2023-12-07T06:05:55;0.20;99.90
57108;DHT22;42987;52.916;6.542;2023-12-07T06:08:22;0.20;99.90
57108;DHT22;42987;52.916;6.542;2023-12-07T06:10:48;0.20;99.90
57108;DHT22;42987;52.916;6.542;2023-12-07T06:13:14;0.20;99.90
57108;DHT22;42987;52.916;6.542;2023-12-07T06:15:40;0.20;99.90
57108;DHT22;42987;52.916;6.542;2023-12-07T06:18:06;0.10;99.90
57108;DHT22;42987;52.916;6.542;2023-12-07T06:20:32;0.10;99.90
57108;DHT22;42987;52.916;6.542;2023-12-07T06:22:59;0.10;99.90
57108;DHT22;42987;52.916;6.542;2023-12-07T06:25:25;0.10;99.90
57108;DHT22;42987;52.916;6.542;2023-12-07T06:27:50;0.00;99.90
57108;DHT22;42987;52.916;6.542;2023-12-07T06:30:17;0.00;99.90
57108;DHT22;42987;52.916;6.542;2023-12-07T06:32:44;0.10;99.90
57108;DHT22;42987;52.916;6.542;2023-12-07T06:35:11;0.10;99.90
57108;DHT22;42987;52.916;6.542;2023-12-07T06:37:38;0.10;99.90
57108;DHT22;42987;52.916;6.542;2023-12-07T06:40:06;0.00;99.90
57108;DHT22;42987;52.916;6.542;2023-12-07T06:42:35;0.10;99.90
57108;DHT22;42987;52.916;6.542;2023-12-07T06:45:05;0.10;99.90
57108;DHT22;42987;52.916;6.542;2023-12-07T06:47:31;0.10;99.90
57108;DHT22;42987;52.916;6.542;2023-12-07T06:49:57;0.00;99.90
57108;DHT22;42987;52.916;6.542;2023-12-07T06:52:22;0.00;99.90
57108;DHT22;42987;52.916;6.542;2023-12-07T06:54:48;0.00;99.90
57108;DHT22;42987;52.916;6.542;2023-12-07T06:57:14;0.00;99.90
57108;DHT22;42987;52.916;6.542;2023-12-07T06:59:40;0.00;99.90
57108;DHT22;42987;52.916;6.542;2023-12-07T07:02:08;0.00;99.90
57108;DHT22;42987;52.916;6.542;2023-12-07T07:04:34;0.00;99.90
57108;DHT22;42987;52.916;6.542;2023-12-07T07:07:00;0.00;99.90
57108;DHT22;42987;52.916;6.542;2023-12-07T07:09:26;0.00;99.90
57108;DHT22;42987;52.916;6.542;2023-12-07T07:11:52;0.00;99.90
57108;DHT22;42987;52.916;6.542;2023-12-07T07:14:19;0.00;99.90
57108;DHT22;42987;52.916;6.542;2023-12-07T07:16:44;0.00;99.90
57108;DHT22;42987;52.916;6.542;2023-12-07T07:19:11;-0.10;99.90
57108;DHT22;42987;52.916;6.542;2023-12-07T07:21:36;0.00;99.90
57108;DHT22;42987;52.916;6.542;2023-12-07T07:24:02;0.10;99.90
57108;DHT22;42987;52.916;6.542;2023-12-07T07:26:28;0.00;99.90
57108;DHT22;42987;52.916;6.542;2023-12-07T07:28:56;-0.10;99.90
57108;DHT22;42987;52.916;6.542;2023-12-07T07:31:22;0.10;99.90
57108;DHT22;42987;52.916;6.542;2023-12-07T07:33:48;0.00;99.90
57108;DHT22;42987;52.916;6.542;2023-12-07T07:36:14;0.00;99.90
57108;DHT22;42987;52.916;6.542;2023-12-07T07:38:43;0.00;99.90
57108;DHT22;42987;52.916;6.542;2023-12-07T07:41:10;0.00;99.90
57108;DHT22;42987;52.916;6.542;2023-12-07T07:43:36;0.00;99.90
57108;DHT22;42987;52.916;6.542;2023-12-07T07:46:03;0.00;99.90
57108;DHT22;42987;52.916;6.542;2023-12-07T07:48:29;0.00;99.90
57108;DHT22;42987;52.916;6.542;2023-12-07T07:50:55;0.00;99.90
57108;DHT22;42987;52.916;6.542;2023-12-07T07:53:21;0.10;99.90
57108;DHT22;42987;52.916;6.542;2023-12-07T07:55:47;0.00;99.90
57108;DHT22;42987;52.916;6.542;2023-12-07T07:58:13;0.00;99.90
57108;DHT22;42987;52.916;6.542;2023-12-07T08:00:39;0.00;99.90
57108;DHT22;42987;52.916;6.542;2023-12-07T08:03:04;0.00;99.90
57108;DHT22;42987;52.916;6.542;2023-12-07T08:05:30;-0.10;99.90
57108;DHT22;42987;52.916;6.542;2023-12-07T08:08:00;-0.10;99.90
57108;DHT22;42987;52.916;6.542;2023-12-07T08:10:25;0.00;99.90
57108;DHT22;42987;52.916;6.542;2023-12-07T08:12:54;-0.10;99.90
57108;DHT22;42987;52.916;6.542;2023-12-07T08:15:20;-0.10;99.90
57108;DHT22;42987;52.916;6.542;2023-12-07T08:17:47;-0.10;99.90
57108;DHT22;42987;52.916;6.542;2023-12-07T08:20:13;-0.10;99.90
57108;DHT22;42987;52.916;6.542;2023-12-07T08:22:40;0.00;99.90
57108;DHT22;42987;52.916;6.542;2023-12-07T08:25:10;0.00;99.90
57108;DHT22;42987;52.916;6.542;2023-12-07T08:27:37;0.00;99.90
57108;DHT22;42987;52.916;6.542;2023-12-07T08:30:04;0.10;99.90
57108;DHT22;42987;52.916;6.542;2023-12-07T08:32:30;0.10;99.90
57108;DHT22;42987;52.916;6.542;2023-12-07T08:34:56;0.20;99.90
57108;DHT22;42987;52.916;6.542;2023-12-07T08:37:22;0.20;99.90
57108;DHT22;42987;52.916;6.542;2023-12-07T08:39:48;0.20;99.90
57108;DHT22;42987;52.916;6.542;2023-12-07T08:42:14;0.20;99.90
57108;DHT22;42987;52.916;6.542;2023-12-07T08:44:40;0.20;99.90
57108;DHT22;42987;52.916;6.542;2023-12-07T08:47:06;0.20;99.90
57108;DHT22;42987;52.916;6.542;2023-12-07T08:49:32;0.20;99.90
57108;DHT22;42987;52.916;6.542;2023-12-07T08:51:58;0.30;99.90
57108;DHT22;42987;52.916;6.542;2023-12-07T08:54:24;0.30;99.90
57108;DHT22;42987;52.916;6.542;2023-12-07T08:56:50;0.30;99.90
57108;DHT22;42987;52.916;6.542;2023-12-07T08:59:16;0.30;99.90
57108;DHT22;42987;52.916;6.542;2023-12-07T09:01:41;0.40;99.90
57108;DHT22;42987;52.916;6.542;2023-12-07T09:04:07;0.40;99.90
57108;DHT22;42987;52.916;6.542;2023-12-07T09:06:33;0.40;99.90
57108;DHT22;42987;52.916;6.542;2023-12-07T09:08:58;0.40;99.90
57108;DHT22;42987;52.916;6.542;2023-12-07T09:11:24;0.40;99.90
57108;DHT22;42987;52.916;6.542;2023-12-07T09:13:50;0.50;99.90
57108;DHT22;42987;52.916;6.542;2023-12-07T09:16:19;0.40;99.90
57108;DHT22;42987;52.916;6.542;2023-12-07T09:18:47;0.50;99.90
57108;DHT22;42987;52.916;6.542;2023-12-07T09:21:13;0.60;99.90
57108;DHT22;42987;52.916;6.542;2023-12-07T09:23:39;0.60;99.90
57108;DHT22;42987;52.916;6.542;2023-12-07T09:26:04;0.60;99.90
57108;DHT22;42987;52.916;6.542;2023-12-07T09:28:31;0.60;99.90
57108;DHT22;42987;52.916;6.542;2023-12-07T09:30:58;0.60;99.90
57108;DHT22;42987;52.916;6.542;2023-12-07T09:33:24;0.60;99.90
57108;DHT22;42987;52.916;6.542;2023-12-07T09:35:50;0.70;99.90
57108;DHT22;42987;52.916;6.542;2023-12-07T09:38:17;0.80;99.90
57108;DHT22;42987;52.916;6.542;2023-12-07T09:40:43;0.80;99.90
57108;DHT22;42987;52.916;6.542;2023-12-07T09:43:11;0.80;99.90
57108;DHT22;42987;52.916;6.542;2023-12-07T09:45:37;0.80;99.90
57108;DHT22;42987;52.916;6.542;2023-12-07T09:48:04;0.80;99.90
57108;DHT22;42987;52.916;6.542;2023-12-07T09:50:30;0.80;99.90
57108;DHT22;42987;52.916;6.542;2023-12-07T09:52:57;0.80;99.90
57108;DHT22;42987;52.916;6.542;2023-12-07T09:55:24;0.80;99.90
57108;DHT22;42987;52.916;6.542;2023-12-07T09:57:53;0.90;99.90
57108;DHT22;42987;52.916;6.542;2023-12-07T10:00:23;0.80;99.90
57108;DHT22;42987;52.916;6.542;2023-12-07T10:02:49;0.80;99.90
57108;DHT22;42987;52.916;6.542;2023-12-07T10:05:15;0.80;99.90
57108;DHT22;42987;52.916;6.542;2023-12-07T10:07:44;0.80;99.90
57108;DHT22;42987;52.916;6.542;2023-12-07T10:10:10;0.80;99.90
57108;DHT22;42987;52.916;6.542;2023-12-07T10:13:02;0.70;99.90
57108;DHT22;42987;52.916;6.542;2023-12-07T10:15:28;0.60;99.90
57108;DHT22;42987;52.916;6.542;2023-12-07T10:17:55;0.60;99.90
57108;DHT22;42987;52.916;6.542;2023-12-07T10:20:27;0.70;99.90
57108;DHT22;42987;52.916;6.542;2023-12-07T10:23:07;0.60;99.90
57108;DHT22;42987;52.916;6.542;2023-12-07T10:25:40;0.60;99.90
57108;DHT22;42987;52.916;6.542;2023-12-07T10:28:07;0.50;99.90
57108;DHT22;42987;52.916;6.542;2023-12-07T10:30:34;0.50;99.90
57108;DHT22;42987;52.916;6.542;2023-12-07T10:33:06;0.50;99.90
57108;DHT22;42987;52.916;6.542;2023-12-07T10:35:42;0.50;99.90
57108;DHT22;42987;52.916;6.542;2023-12-07T10:38:09;0.50;99.90
57108;DHT22;42987;52.916;6.542;2023-12-07T10:40:35;0.60;99.90
57108;DHT22;42987;52.916;6.542;2023-12-07T10:43:04;0.50;99.90
57108;DHT22;42987;52.916;6.542;2023-12-07T10:45:31;0.50;99.90
57108;DHT22;42987;52.916;6.542;2023-12-07T10:48:08;0.50;99.90
57108;DHT22;42987;52.916;6.542;2023-12-07T10:50:36;0.50;99.90
57108;DHT22;42987;52.916;6.542;2023-12-07T10:53:32;0.50;99.90
57108;DHT22;42987;52.916;6.542;2023-12-07T10:55:59;0.50;99.90
57108;DHT22;42987;52.916;6.542;2023-12-07T10:58:25;0.50;99.90
57108;DHT22;42987;52.916;6.542;2023-12-07T11:00:55;0.50;99.90
57108;DHT22;42987;52.916;6.542;2023-12-07T11:03:24;0.50;99.90
57108;DHT22;42987;52.916;6.542;2023-12-07T11:05:50;0.60;99.90
57108;DHT22;42987;52.916;6.542;2023-12-07T11:08:47;0.50;99.90
57108;DHT22;42987;52.916;6.542;2023-12-07T11:11:22;0.60;99.90
57108;DHT22;42987;52.916;6.542;2023-12-07T11:13:59;0.60;99.90
57108;DHT22;42987;52.916;6.542;2023-12-07T11:16:33;0.60;99.90
57108;DHT22;42987;52.916;6.542;2023-12-07T11:19:00;0.60;99.90
57108;DHT22;42987;52.916;6.542;2023-12-07T11:21:26;0.70;99.90
57108;DHT22;42987;52.916;6.542;2023-12-07T11:23:53;0.70;99.90
57108;DHT22;42987;52.916;6.542;2023-12-07T11:26:23;0.70;99.90
57108;DHT22;42987;52.916;6.542;2023-12-07T11:28:50;0.70;99.90
57108;DHT22;42987;52.916;6.542;2023-12-07T11:31:16;0.70;99.90
57108;DHT22;42987;52.916;6.542;2023-12-07T11:33:42;0.70;99.90
57108;DHT22;42987;52.916;6.542;2023-12-07T11:36:09;0.80;99.90
57108;DHT22;42987;52.916;6.542;2023-12-07T11:41:43;0.70;99.90
57108;DHT22;42987;52.916;6.542;2023-12-07T11:44:10;0.70;99.90
57108;DHT22;42987;52.916;6.542;2023-12-07T11:46:40;0.70;99.90
57108;DHT22;42987;52.916;6.542;2023-12-07T11:49:06;0.80;99.90
57108;DHT22;42987;52.916;6.542;2023-12-07T11:51:36;0.80;99.90
57108;DHT22;42987;52.916;6.542;2023-12-07T11:54:02;0.70;99.90
57108;DHT22;42987;52.916;6.542;2023-12-07T11:56:28;0.80;99.90
57108;DHT22;42987;52.916;6.542;2023-12-07T11:58:54;0.80;99.90
57108;DHT22;42987;52.916;6.542;2023-12-07T12:01:24;0.80;99.90
57108;DHT22;42987;52.916;6.542;2023-12-07T12:03:50;0.70;99.90
57108;DHT22;42987;52.916;6.542;2023-12-07T12:06:15;0.80;99.90
57108;DHT22;42987;52.916;6.542;2023-12-07T12:08:41;0.80;99.90
57108;DHT22;42987;52.916;6.542;2023-12-07T12:11:08;0.80;99.90
57108;DHT22;42987;52.916;6.542;2023-12-07T12:13:34;0.80;99.90
57108;DHT22;42987;52.916;6.542;2023-12-07T12:16:01;0.80;99.90
57108;DHT22;42987;52.916;6.542;2023-12-07T12:18:27;0.80;99.90
57108;DHT22;42987;52.916;6.542;2023-12-07T12:20:53;0.70;99.90
57108;DHT22;42987;52.916;6.542;2023-12-07T12:23:20;0.80;99.90
57108;DHT22;42987;52.916;6.542;2023-12-07T12:25:46;0.80;99.90
57108;DHT22;42987;52.916;6.542;2023-12-07T12:28:15;0.80;99.90
57108;DHT22;42987;52.916;6.542;2023-12-07T12:30:42;0.80;99.90
57108;DHT22;42987;52.916;6.542;2023-12-07T12:33:07;0.80;99.90
57108;DHT22;42987;52.916;6.542;2023-12-07T12:35:33;0.90;99.90
57108;DHT22;42987;52.916;6.542;2023-12-07T12:37:59;0.80;99.90
57108;DHT22;42987;52.916;6.542;2023-12-07T12:40:27;0.90;99.90
57108;DHT22;42987;52.916;6.542;2023-12-07T12:42:57;0.90;99.90
57108;DHT22;42987;52.916;6.542;2023-12-07T12:45:23;0.90;99.90
57108;DHT22;42987;52.916;6.542;2023-12-07T12:47:49;0.90;99.90
57108;DHT22;42987;52.916;6.542;2023-12-07T12:50:37;0.90;99.90
57108;DHT22;42987;52.916;6.542;2023-12-07T12:53:09;1.00;99.90
57108;DHT22;42987;52.916;6.542;2023-12-07T12:55:39;1.00;99.90
57108;DHT22;42987;52.916;6.542;2023-12-07T12:58:07;1.00;99.90
57108;DHT22;42987;52.916;6.542;2023-12-07T13:00:34;1.10;99.90
57108;DHT22;42987;52.916;6.542;2023-12-07T13:03:02;1.00;99.90
57108;DHT22;42987;52.916;6.542;2023-12-07T13:05:32;1.00;99.90
57108;DHT22;42987;52.916;6.542;2023-12-07T13:08:02;1.00;99.90
57108;DHT22;42987;52.916;6.542;2023-12-07T13:10:28;1.00;99.90
57108;DHT22;42987;52.916;6.542;2023-12-07T13:12:53;1.10;99.90
57108;DHT22;42987;52.916;6.542;2023-12-07T13:15:19;1.10;99.90
57108;DHT22;42987;52.916;6.542;2023-12-07T13:17:45;1.10;99.90
57108;DHT22;42987;52.916;6.542;2023-12-07T13:20:11;1.10;99.90
57108;DHT22;42987;52.916;6.542;2023-12-07T13:22:37;1.10;99.90
57108;DHT22;42987;52.916;6.542;2023-12-07T13:25:05;1.20;99.90
57108;DHT22;42987;52.916;6.542;2023-12-07T13:27:32;1.10;99.90
57108;DHT22;42987;52.916;6.542;2023-12-07T13:29:59;1.20;99.90
57108;DHT22;42987;52.916;6.542;2023-12-07T13:32:25;1.20;99.90
57108;DHT22;42987;52.916;6.542;2023-12-07T13:34:51;1.20;99.90
57108;DHT22;42987;52.916;6.542;2023-12-07T13:37:17;1.20;99.90
57108;DHT22;42987;52.916;6.542;2023-12-07T13:39:43;1.20;99.90
57108;DHT22;42987;52.916;6.542;2023-12-07T13:42:09;1.20;99.90
57108;DHT22;42987;52.916;6.542;2023-12-07T13:44:38;1.20;99.90
57108;DHT22;42987;52.916;6.542;2023-12-07T13:47:03;1.20;99.90
57108;DHT22;42987;52.916;6.542;2023-12-07T13:49:29;1.30;99.90
57108;DHT22;42987;52.916;6.542;2023-12-07T13:51:55;1.30;99.90
57108;DHT22;42987;52.916;6.542;2023-12-07T13:54:21;1.30;99.90
57108;DHT22;42987;52.916;6.542;2023-12-07T13:56:50;1.30;99.90
57108;DHT22;42987;52.916;6.542;2023-12-07T13:59:15;1.30;99.90
57108;DHT22;42987;52.916;6.542;2023-12-07T14:01:41;1.30;99.90
57108;DHT22;42987;52.916;6.542;2023-12-07T14:04:07;1.30;99.90
57108;DHT22;42987;52.916;6.542;2023-12-07T14:06:33;1.40;99.90
57108;DHT22;42987;52.916;6.542;2023-12-07T16:23:37;2.10;99.90
57108;DHT22;42987;52.916;6.542;2023-12-07T16:26:07;2.30;99.90
57108;DHT22;42987;52.916;6.542;2023-12-07T16:28:32;2.30;99.90
57108;DHT22;42987;52.916;6.542;2023-12-07T16:30:58;2.20;99.90
57108;DHT22;42987;52.916;6.542;2023-12-07T16:33:24;2.20;99.90
57108;DHT22;42987;52.916;6.542;2023-12-07T16:35:50;2.10;99.90
57108;DHT22;42987;52.916;6.542;2023-12-07T16:38:16;2.10;99.90
57108;DHT22;42987;52.916;6.542;2023-12-07T16:40:42;2.10;99.90
57108;DHT22;42987;52.916;6.542;2023-12-07T16:43:08;2.00;99.90
57108;DHT22;42987;52.916;6.542;2023-12-07T16:45:34;2.00;99.90
57108;DHT22;42987;52.916;6.542;2023-12-07T16:48:00;2.00;99.90
57108;DHT22;42987;52.916;6.542;2023-12-07T16:50:26;1.90;99.90
57108;DHT22;42987;52.916;6.542;2023-12-07T16:52:52;1.90;99.90
57108;DHT22;42987;52.916;6.542;2023-12-07T16:55:17;1.90;99.90
57108;DHT22;42987;52.916;6.542;2023-12-07T16:57:43;1.90;99.90
57108;DHT22;42987;52.916;6.542;2023-12-07T17:00:09;1.90;99.90
57108;DHT22;42987;52.916;6.542;2023-12-07T17:02:36;1.90;99.90
57108;DHT22;42987;52.916;6.542;2023-12-07T17:05:02;1.80;99.90
57108;DHT22;42987;52.916;6.542;2023-12-07T17:07:28;1.80;99.90
57108;DHT22;42987;52.916;6.542;2023-12-07T17:09:53;1.80;99.90
57108;DHT22;42987;52.916;6.542;2023-12-07T17:12:19;1.90;99.90
57108;DHT22;42987;52.916;6.542;2023-12-07T17:14:45;1.90;99.90
57108;DHT22;42987;52.916;6.542;2023-12-07T17:17:13;1.80;99.90
57108;DHT22;42987;52.916;6.542;2023-12-07T17:19:39;1.80;99.90
57108;DHT22;42987;52.916;6.542;2023-12-07T17:22:05;1.80;99.90
57108;DHT22;42987;52.916;6.542;2023-12-07T17:24:36;1.80;99.90
57108;DHT22;42987;52.916;6.542;2023-12-07T17:27:01;1.80;99.90
57108;DHT22;42987;52.916;6.542;2023-12-07T17:29:27;1.80;99.90
57108;DHT22;42987;52.916;6.542;2023-12-07T17:31:53;1.80;99.90
57108;DHT22;42987;52.916;6.542;2023-12-07T17:34:19;1.90;99.90
57108;DHT22;42987;52.916;6.542;2023-12-07T17:36:45;1.80;99.90
57108;DHT22;42987;52.916;6.542;2023-12-07T17:39:11;1.80;99.90
57108;DHT22;42987;52.916;6.542;2023-12-07T17:41:37;1.80;99.90
57108;DHT22;42987;52.916;6.542;2023-12-07T17:44:06;1.90;99.90
57108;DHT22;42987;52.916;6.542;2023-12-07T17:46:32;1.90;99.90
57108;DHT22;42987;52.916;6.542;2023-12-07T17:48:58;1.90;99.90
57108;DHT22;42987;52.916;6.542;2023-12-07T17:51:26;1.90;99.90
57108;DHT22;42987;52.916;6.542;2023-12-07T17:53:52;1.80;99.90
57108;DHT22;42987;52.916;6.542;2023-12-07T17:56:17;1.80;99.90
57108;DHT22;42987;52.916;6.542;2023-12-07T17:58:43;1.80;99.90
57108;DHT22;42987;52.916;6.542;2023-12-07T18:01:09;1.80;99.90